createdAt,value
2023-04-22T00:01:03.094Z,97513.34
2023-04-22T00:03:33.872Z,97518.56
2023-04-22T00:06:03.564Z,97514.06
2023-04-22T00:08:33.086Z,97509.19
2023-04-22T00:11:02.026Z,97494.22
2023-04-22T00:13:31.197Z,97496.81
2023-04-22T00:16:00.378Z,97503.09
2023-04-22T00:18:30.968Z,97504.28
2023-04-22T00:20:59.855Z,97495.22
2023-04-22T00:23:28.492Z,97497.03
2023-04-22T00:25:59.505Z,97498.06
2023-04-22T00:28:28.426Z,97502.63
2023-04-22T00:31:01.433Z,97500.50
2023-04-22T00:33:31.992Z,97497.44
2023-04-22T00:36:00.953Z,97494.47
2023-04-22T00:38:30.302Z,97493.09
2023-04-22T00:40:59.380Z,97496.00
2023-04-22T00:43:28.221Z,97493.75
2023-04-22T00:45:58.544Z,97488.41
2023-04-22T00:48:28.900Z,97499.91
2023-04-22T00:50:59.809Z,97498.41
2023-04-22T00:53:28.376Z,97502.16
2023-04-22T00:55:58.125Z,97489.84
2023-04-22T00:58:30.035Z,97500.91
2023-04-22T01:00:59.320Z,97507.28
2023-04-22T01:03:30.773Z,97516.69
2023-04-22T01:06:01.418Z,97517.75
2023-04-22T01:08:30.835Z,97516.16
2023-04-22T01:10:59.752Z,97512.94
2023-04-22T01:13:28.263Z,97513.94
2023-04-22T01:15:56.826Z,97511.50
2023-04-22T01:18:25.831Z,97513.34
2023-04-22T01:20:54.486Z,97512.50
2023-04-22T01:23:24.842Z,97518.44
2023-04-22T01:25:53.902Z,97507.34
2023-04-22T01:28:22.720Z,97507.47
2023-04-22T01:30:51.292Z,97514.28
2023-04-22T01:33:21.021Z,97508.41
2023-04-22T01:35:49.695Z,97508.19
2023-04-22T01:38:18.893Z,97503.97
2023-04-22T01:40:48.969Z,97513.44
2023-04-22T01:43:17.609Z,97508.41
2023-04-22T01:45:46.191Z,97507.44
2023-04-22T01:48:14.811Z,97508.50
2023-04-22T01:50:43.074Z,97507.75
2023-04-22T01:53:12.234Z,97518.84
2023-04-22T01:55:40.915Z,97508.63
2023-04-22T01:58:11.209Z,97512.16
2023-04-22T02:00:39.718Z,97515.63
2023-04-22T02:03:08.405Z,97507.84
2023-04-22T02:05:38.323Z,97514.06
2023-04-22T02:08:07.131Z,97512.50
2023-04-22T02:10:35.598Z,97514.81
2023-04-22T02:13:03.888Z,97515.00
2023-04-22T02:15:33.913Z,97517.50
2023-04-22T02:18:03.179Z,97522.13
2023-04-22T02:20:31.758Z,97510.75
2023-04-22T02:23:00.289Z,97527.56
2023-04-22T02:25:29.037Z,97524.31
2023-04-22T02:27:57.598Z,97535.50
2023-04-22T02:30:26.146Z,97532.13
2023-04-22T02:32:56.543Z,97533.03
2023-04-22T02:35:24.907Z,97526.19
2023-04-22T02:37:53.379Z,97527.19
2023-04-22T02:40:22.368Z,97530.53
2023-04-22T02:42:51.474Z,97533.97
2023-04-22T02:45:20.044Z,97523.94
2023-04-22T02:47:48.823Z,97535.88
2023-04-22T02:50:19.147Z,97534.19
2023-04-22T02:52:47.429Z,97538.53
2023-04-22T02:55:16.088Z,97531.09
2023-04-22T02:57:44.564Z,97531.94
2023-04-22T03:00:13.766Z,97521.91
2023-04-22T03:02:42.453Z,97532.09
2023-04-22T03:05:12.001Z,97536.47
2023-04-22T03:07:41.857Z,97541.72
2023-04-22T03:10:11.001Z,97542.72
2023-04-22T03:12:39.393Z,97533.75
2023-04-22T03:15:08.931Z,97545.63
2023-04-22T03:17:37.562Z,97541.50
2023-04-22T03:20:07.550Z,97545.72
2023-04-22T03:22:36.415Z,97541.53
2023-04-22T03:25:07.340Z,97540.66
2023-04-22T03:27:35.876Z,97538.28
2023-04-22T03:30:04.576Z,97553.69
2023-04-22T03:32:33.359Z,97547.81
2023-04-22T03:35:02.061Z,97547.88
2023-04-22T03:37:30.653Z,97541.53
2023-04-22T03:39:59.132Z,97545.78
2023-04-22T03:42:29.029Z,97545.03
2023-04-22T03:44:57.550Z,97547.72
2023-04-22T03:47:25.968Z,97547.81
2023-04-22T03:49:54.108Z,97547.94
2023-04-22T03:52:22.659Z,97540.34
2023-04-22T03:54:50.781Z,97546.31
2023-04-22T03:57:19.058Z,97549.84
2023-04-22T03:59:49.034Z,97550.78
2023-04-22T04:02:17.480Z,97548.25
2023-04-22T04:04:46.573Z,97542.41
2023-04-22T04:07:15.200Z,97545.84
2023-04-22T04:09:43.483Z,97535.53
2023-04-22T04:12:12.070Z,97526.41
2023-04-22T04:14:40.917Z,97526.41
2023-04-22T04:17:10.848Z,97544.19
2023-04-22T04:19:39.777Z,97541.78
2023-04-22T04:22:08.880Z,97549.47
2023-04-22T04:24:42.301Z,97544.47
2023-04-22T04:27:12.050Z,97542.13
2023-04-22T04:29:41.932Z,97552.41
2023-04-22T04:32:12.115Z,97550.72
2023-04-22T04:34:44.817Z,97554.81
2023-04-22T04:37:13.437Z,97545.31
2023-04-22T04:39:42.474Z,97546.97
2023-04-22T04:42:12.474Z,97547.88
2023-04-22T04:44:40.843Z,97550.44
2023-04-22T04:47:09.258Z,97555.50
2023-04-22T04:49:40.763Z,97552.16
2023-04-22T04:52:12.024Z,97553.97
2023-04-22T04:54:40.444Z,97553.97
2023-04-22T04:57:10.630Z,97559.88
2023-04-22T04:59:39.417Z,97558.97
2023-04-22T05:02:08.193Z,97557.91
2023-04-22T05:04:36.765Z,97557.78
2023-04-22T05:07:06.619Z,97555.16
2023-04-22T05:09:38.048Z,97547.94
2023-04-22T05:12:07.045Z,97554.34
2023-04-22T05:14:35.654Z,97551.34
2023-04-22T05:17:04.462Z,97552.94
2023-04-22T05:19:33.119Z,97556.22
2023-04-22T05:22:01.691Z,97552.59
2023-04-22T05:24:31.579Z,97551.53
2023-04-22T05:27:00.141Z,97553.91
2023-04-22T05:29:28.801Z,97558.69
2023-04-22T05:31:57.076Z,97546.66
2023-04-22T05:34:25.331Z,97547.06
2023-04-22T05:36:53.651Z,97546.91
2023-04-22T05:39:22.105Z,97555.25
2023-04-22T05:41:51.907Z,97556.03
2023-04-22T05:44:20.508Z,97554.88
2023-04-22T05:46:49.113Z,97552.63
2023-04-22T05:49:17.138Z,97551.25
2023-04-22T05:51:45.422Z,97557.09
2023-04-22T05:54:13.829Z,97547.91
2023-04-22T05:56:42.593Z,97553.59
2023-04-22T05:59:12.290Z,97554.06
2023-04-22T06:01:40.805Z,97558.06
2023-04-22T06:04:10.507Z,97556.78
2023-04-22T06:06:39.165Z,97548.47
2023-04-22T06:09:07.859Z,97553.66
2023-04-22T06:11:36.072Z,97549.00
2023-04-22T06:14:04.619Z,97558.50
2023-04-22T06:16:37.233Z,97560.69
2023-04-22T06:19:05.474Z,97547.06
2023-04-22T06:21:34.193Z,97535.00
2023-04-22T06:24:02.794Z,97545.53
2023-04-22T06:26:31.669Z,97535.38
2023-04-22T06:29:00.158Z,97541.59
2023-04-22T06:31:28.767Z,97544.25
2023-04-22T06:33:59.774Z,97547.34
2023-04-22T06:36:30.627Z,97548.38
2023-04-22T06:39:00.146Z,97547.53
2023-04-22T06:41:28.642Z,97545.13
2023-04-22T06:43:56.927Z,97555.25
2023-04-22T06:46:26.168Z,97542.94
2023-04-22T06:48:54.432Z,97549.47
2023-04-22T06:51:24.959Z,97531.84
2023-04-22T06:53:55.020Z,97545.59
2023-04-22T06:56:23.336Z,97538.22
2023-04-22T06:58:51.980Z,97534.91
2023-04-22T07:01:21.090Z,97533.31
2023-04-22T07:03:49.448Z,97532.75
2023-04-22T07:06:17.953Z,97534.28
2023-04-22T07:08:48.635Z,97534.22
2023-04-22T07:11:17.206Z,97523.72
2023-04-22T07:13:46.739Z,97528.59
2023-04-22T07:16:15.028Z,97520.72
2023-04-22T07:18:43.451Z,97520.00
2023-04-22T07:21:12.342Z,97517.66
2023-04-22T07:23:41.450Z,97519.25
2023-04-22T07:26:11.160Z,97520.94
2023-04-22T07:28:39.626Z,97513.25
2023-04-22T07:31:08.247Z,97511.03
2023-04-22T07:33:36.652Z,97516.53
2023-04-22T07:36:05.894Z,97505.84
2023-04-22T07:38:34.259Z,97514.03
2023-04-22T07:41:02.656Z,97503.16
2023-04-22T07:43:32.397Z,97504.16
2023-04-22T07:46:00.937Z,97503.16
2023-04-22T07:48:29.442Z,97514.34
2023-04-22T07:50:57.612Z,97504.81
2023-04-22T07:53:26.005Z,97512.31
2023-04-22T07:55:54.923Z,97506.19
2023-04-22T07:58:23.380Z,97511.63
2023-04-22T08:00:52.999Z,97515.59
2023-04-22T08:03:21.837Z,97511.06
2023-04-22T08:05:53.493Z,97502.84
2023-04-22T08:08:23.731Z,97509.38
2023-04-22T08:10:54.569Z,97511.34
2023-04-22T08:13:29.101Z,97518.53
2023-04-22T08:16:07.535Z,97512.22
2023-04-22T08:18:39.278Z,97507.69
2023-04-22T08:21:17.196Z,97505.25
2023-04-22T08:23:45.434Z,97500.34
2023-04-22T08:26:15.342Z,97504.78
2023-04-22T08:28:44.389Z,97506.63
2023-04-22T08:31:14.571Z,97499.03
2023-04-22T08:33:43.822Z,97498.63
2023-04-22T08:36:12.464Z,97503.50
2023-04-22T08:38:40.949Z,97505.50
2023-04-22T08:41:10.255Z,97495.00
2023-04-22T08:43:38.864Z,97499.00
2023-04-22T08:46:07.708Z,97488.59
2023-04-22T08:48:38.888Z,97505.28
2023-04-22T08:51:08.909Z,97496.97
2023-04-22T08:53:37.905Z,97499.72
2023-04-22T08:56:07.869Z,97486.31
2023-04-22T08:58:36.814Z,97489.56
2023-04-22T09:01:05.317Z,97485.63
2023-04-22T09:03:35.387Z,97480.91
2023-04-22T09:06:07.393Z,97472.56
2023-04-22T09:08:35.689Z,97470.28
2023-04-22T09:11:06.575Z,97466.56
2023-04-22T09:13:35.977Z,97467.50
2023-04-22T09:16:04.177Z,97459.06
2023-04-22T09:18:40.133Z,97458.78
2023-04-22T09:21:11.043Z,97461.78
2023-04-22T09:23:47.446Z,97459.03
2023-04-22T09:26:18.471Z,97464.47
2023-04-22T09:28:51.858Z,97461.84
2023-04-22T09:31:20.910Z,97449.91
2023-04-22T09:33:51.149Z,97457.81
2023-04-22T09:36:28.235Z,97454.38
2023-04-22T09:38:57.959Z,97446.84
2023-04-22T09:41:29.901Z,97451.97
2023-04-22T09:43:59.231Z,97451.66
2023-04-22T09:46:30.216Z,97460.94
2023-04-22T09:49:00.117Z,97455.88
2023-04-22T09:51:30.977Z,97450.34
2023-04-22T09:54:00.929Z,97449.47
2023-04-22T09:56:45.131Z,97437.66
2023-04-22T09:59:13.965Z,97444.13
2023-04-22T10:01:43.689Z,97437.69
2023-04-22T10:04:15.155Z,97439.75
2023-04-22T10:06:45.673Z,97437.38
2023-04-22T10:09:14.788Z,97429.94
2023-04-22T10:11:43.293Z,97436.38
2023-04-22T10:14:14.393Z,97443.63
2023-04-22T10:16:47.305Z,97431.97
2023-04-22T10:19:20.623Z,97428.09
2023-04-22T10:21:54.759Z,97423.47
2023-04-22T10:24:23.384Z,97432.66
2023-04-22T10:26:56.908Z,97420.81
2023-04-22T10:29:26.254Z,97423.53
2023-04-22T10:31:58.590Z,97428.00
2023-04-22T10:34:27.357Z,97419.97
2023-04-22T10:36:59.602Z,97417.72
2023-04-22T10:39:29.904Z,97409.66
2023-04-22T10:42:13.159Z,97415.06
2023-04-22T10:44:53.049Z,97404.28
2023-04-22T10:47:29.597Z,97405.94
2023-04-22T10:50:22.831Z,97398.56
2023-04-22T10:52:54.493Z,97391.81
2023-04-22T10:55:23.529Z,97396.94
2023-04-22T10:57:53.284Z,97382.44
2023-04-22T11:00:45.607Z,97388.38
2023-04-22T11:03:26.105Z,97384.03
2023-04-22T11:06:16.153Z,97387.56
2023-04-22T11:08:48.678Z,97377.31
2023-04-22T11:11:20.262Z,97377.84
2023-04-22T11:13:52.172Z,97383.13
2023-04-22T11:16:24.683Z,97377.19
2023-04-22T11:18:54.170Z,97380.25
2023-04-22T11:21:23.860Z,97377.94
2023-04-22T11:23:54.533Z,97374.16
2023-04-22T11:26:35.626Z,97371.69
2023-04-22T11:29:04.824Z,97369.72
2023-04-22T11:31:33.509Z,97372.47
2023-04-22T11:34:02.501Z,97366.63
2023-04-22T11:36:32.208Z,97371.03
2023-04-22T11:39:01.986Z,97373.31
2023-04-22T11:41:31.451Z,97365.94
2023-04-22T11:44:03.359Z,97364.78
2023-04-22T11:46:38.765Z,97360.91
2023-04-22T11:49:15.193Z,97360.19
2023-04-22T11:51:57.269Z,97353.19
2023-04-22T11:54:34.666Z,97355.47
2023-04-22T11:57:08.491Z,97354.41
2023-04-22T11:59:36.596Z,97350.06
2023-04-22T12:02:07.543Z,97339.50
2023-04-22T12:04:38.735Z,97347.00
2023-04-22T12:07:07.184Z,97348.66
2023-04-22T12:09:37.015Z,97338.97
2023-04-22T12:12:05.979Z,97340.63
2023-04-22T12:14:34.571Z,97330.16
2023-04-22T12:17:05.627Z,97337.75
2023-04-22T12:19:34.185Z,97327.13
2023-04-22T12:22:02.482Z,97337.22
2023-04-22T12:24:31.887Z,97337.84
2023-04-22T12:27:02.371Z,97336.59
2023-04-22T12:29:32.771Z,97344.84
2023-04-22T12:32:01.437Z,97335.91
2023-04-22T12:34:29.977Z,97321.22
2023-04-22T12:36:58.372Z,97327.06
2023-04-22T12:39:26.656Z,97322.88
2023-04-22T12:41:55.003Z,97324.91
2023-04-22T12:44:25.164Z,97330.22
2023-04-22T12:46:54.170Z,97329.81
2023-04-22T12:49:22.734Z,97322.63
2023-04-22T12:51:51.584Z,97322.53
2023-04-22T12:54:20.608Z,97320.25
2023-04-22T12:56:49.417Z,97312.75
2023-04-22T12:59:17.603Z,97298.84
2023-04-22T13:01:47.511Z,97308.50
2023-04-22T13:04:15.990Z,97306.31
2023-04-22T13:06:44.581Z,97287.63
2023-04-22T13:09:13.397Z,97305.97
2023-04-22T13:11:43.717Z,97303.22
2023-04-22T13:14:11.950Z,97299.78
2023-04-22T13:16:41.107Z,97299.56
2023-04-22T13:19:11.173Z,97299.47
2023-04-22T13:21:39.552Z,97285.03
2023-04-22T13:24:09.114Z,97278.06
2023-04-22T13:26:38.983Z,97270.84
2023-04-22T13:29:11.426Z,97275.16
2023-04-22T13:31:40.266Z,97283.91
2023-04-22T13:34:08.786Z,97268.97
2023-04-22T13:36:38.589Z,97271.59
2023-04-22T13:39:08.687Z,97257.53
2023-04-22T13:41:37.233Z,97256.03
2023-04-22T13:44:05.667Z,97255.75
2023-04-22T13:46:34.193Z,97257.16
2023-04-22T13:49:03.818Z,97247.88
2023-04-22T13:51:33.816Z,97245.53
2023-04-22T13:54:03.440Z,97256.34
2023-04-22T13:56:32.464Z,97246.25
2023-04-22T13:59:01.761Z,97240.84
2023-04-22T14:01:30.071Z,97245.56
2023-04-22T14:03:59.385Z,97243.75
2023-04-22T14:06:27.779Z,97229.28
2023-04-22T14:08:56.500Z,97232.44
2023-04-22T14:11:26.542Z,97234.13
2023-04-22T14:13:55.390Z,97234.50
2023-04-22T14:16:24.228Z,97241.41
2023-04-22T14:18:53.072Z,97239.47
2023-04-22T14:21:21.700Z,97228.56
2023-04-22T14:23:50.102Z,97231.47
2023-04-22T14:26:18.786Z,97242.41
2023-04-22T14:28:48.718Z,97239.50
2023-04-22T14:31:17.038Z,97235.63
2023-04-22T14:33:45.854Z,97232.72
2023-04-22T14:36:14.235Z,97234.78
2023-04-22T14:38:43.032Z,97230.59
2023-04-22T14:41:12.996Z,97237.25
2023-04-22T14:43:41.775Z,97235.06
2023-04-22T14:46:12.016Z,97231.47
2023-04-22T14:48:40.477Z,97229.81
2023-04-22T14:51:08.676Z,97232.84
2023-04-22T14:53:38.737Z,97228.81
2023-04-22T14:56:07.684Z,97217.91
2023-04-22T14:58:36.226Z,97221.78
2023-04-22T15:01:07.262Z,97222.34
2023-04-22T15:03:40.749Z,97218.63
2023-04-22T15:06:09.246Z,97221.84
2023-04-22T15:08:37.792Z,97214.06
2023-04-22T15:11:07.041Z,97213.50
2023-04-22T15:13:36.550Z,97204.66
2023-04-22T15:16:05.295Z,97204.78
2023-04-22T15:18:33.722Z,97209.66
2023-04-22T15:21:06.082Z,97208.56
2023-04-22T15:23:34.752Z,97216.72
2023-04-22T15:26:03.589Z,97210.41
2023-04-22T15:28:31.909Z,97209.78
2023-04-22T15:31:00.648Z,97212.97
2023-04-22T15:33:29.289Z,97216.13
2023-04-22T15:35:58.765Z,97209.78
2023-04-22T15:38:29.584Z,97214.06
2023-04-22T15:40:59.045Z,97206.31
2023-04-22T15:43:29.171Z,97215.84
2023-04-22T15:46:00.188Z,97217.31
2023-04-22T15:48:28.573Z,97216.19
2023-04-22T15:50:57.154Z,97210.59
2023-04-22T15:53:25.356Z,97216.13
2023-04-22T15:55:54.922Z,97205.78
2023-04-22T15:58:23.563Z,97195.75
2023-04-22T16:00:52.339Z,97215.03
2023-04-22T16:03:21.299Z,97211.00
2023-04-22T16:05:49.711Z,97210.28
2023-04-22T16:08:18.989Z,97202.13
2023-04-22T16:10:47.468Z,97210.38
2023-04-22T16:13:17.288Z,97209.66
2023-04-22T16:15:45.770Z,97213.06
2023-04-22T16:18:14.904Z,97212.56
2023-04-22T16:20:43.530Z,97217.22
2023-04-22T16:23:11.883Z,97214.75
2023-04-22T16:25:40.840Z,97219.31
2023-04-22T16:28:10.567Z,97209.63
2023-04-22T16:30:40.992Z,97211.09
2023-04-22T16:33:10.077Z,97210.75
2023-04-22T16:35:38.977Z,97209.94
2023-04-22T16:38:07.367Z,97216.25
2023-04-22T16:40:37.579Z,97206.59
2023-04-22T16:43:06.623Z,97215.41
2023-04-22T16:45:35.091Z,97211.41
2023-04-22T16:48:05.563Z,97205.59
2023-04-22T16:50:34.062Z,97208.88
2023-04-22T16:53:02.418Z,97209.63
2023-04-22T16:55:30.649Z,97211.66
2023-04-22T16:58:03.594Z,97220.81
2023-04-22T17:00:32.261Z,97219.34
2023-04-22T17:03:01.147Z,97217.13
2023-04-22T17:05:31.092Z,97224.44
2023-04-22T17:07:59.627Z,97219.91
2023-04-22T17:10:28.623Z,97227.84
2023-04-22T17:12:57.422Z,97227.41
2023-04-22T17:15:25.729Z,97221.69
2023-04-22T17:17:54.051Z,97221.13
2023-04-22T17:20:23.364Z,97220.91
2023-04-22T17:22:53.224Z,97215.81
2023-04-22T17:25:21.907Z,97215.09
2023-04-22T17:27:51.461Z,97216.41
2023-04-22T17:30:20.409Z,97216.16
2023-04-22T17:32:50.518Z,97214.88
2023-04-22T17:35:19.470Z,97220.56
2023-04-22T17:37:48.565Z,97218.06
2023-04-22T17:40:18.465Z,97222.81
2023-04-22T17:42:47.347Z,97217.97
2023-04-22T17:45:16.002Z,97208.94
2023-04-22T17:47:44.832Z,97198.03
2023-04-22T17:50:13.574Z,97206.78
2023-04-22T17:52:42.022Z,97202.88
2023-04-22T17:55:11.966Z,97208.22
2023-04-22T17:57:42.485Z,97213.91
2023-04-22T18:00:14.587Z,97209.28
2023-04-22T18:02:47.852Z,97199.22
2023-04-22T18:05:17.878Z,97212.13
2023-04-22T18:07:46.311Z,97206.41
2023-04-22T18:10:16.169Z,97216.13
2023-04-22T18:12:46.391Z,97223.06
2023-04-22T18:15:15.332Z,97217.94
2023-04-22T18:17:45.226Z,97224.69
2023-04-22T18:20:18.647Z,97226.69
2023-04-22T18:22:49.471Z,97224.19
2023-04-22T18:25:18.192Z,97236.75
2023-04-22T18:27:50.494Z,97237.66
2023-04-22T18:30:19.095Z,97232.97
2023-04-22T18:32:47.845Z,97238.53
2023-04-22T18:35:17.180Z,97240.66
2023-04-22T18:37:45.888Z,97228.88
2023-04-22T18:40:17.788Z,97247.91
2023-04-22T18:42:47.938Z,97254.03
2023-04-22T18:45:17.037Z,97258.16
2023-04-22T18:47:47.171Z,97254.47
2023-04-22T18:50:15.732Z,97260.94
2023-04-22T18:52:44.322Z,97261.34
2023-04-22T18:55:14.007Z,97271.38
2023-04-22T18:57:43.663Z,97259.31
2023-04-22T19:00:15.503Z,97260.97
2023-04-22T19:02:46.962Z,97262.44
2023-04-22T19:05:18.388Z,97267.84
2023-04-22T19:07:46.865Z,97273.66
2023-04-22T19:10:15.776Z,97274.72
2023-04-22T19:12:44.059Z,97271.16
2023-04-22T19:15:14.877Z,97273.69
2023-04-22T19:17:43.976Z,97283.38
2023-04-22T19:20:12.982Z,97281.59
2023-04-22T19:22:41.762Z,97284.66
2023-04-22T19:25:11.261Z,97277.69
2023-04-22T19:27:40.350Z,97283.72
2023-04-22T19:30:10.494Z,97286.03
2023-04-22T19:32:40.957Z,97284.34
2023-04-22T19:35:12.822Z,97291.72
2023-04-22T19:37:41.868Z,97286.44
2023-04-22T19:40:12.182Z,97295.47
2023-04-22T19:42:40.846Z,97295.78
2023-04-22T19:45:10.649Z,97299.31
2023-04-22T19:47:41.202Z,97292.47
2023-04-22T19:50:11.469Z,97297.03
2023-04-22T19:52:43.514Z,97310.78
2023-04-22T19:55:13.878Z,97312.03
2023-04-22T19:57:43.699Z,97320.06
2023-04-22T20:00:13.575Z,97320.53
2023-04-22T20:02:44.061Z,97326.91
2023-04-22T20:05:13.626Z,97322.28
2023-04-22T20:07:45.256Z,97322.56
2023-04-22T20:10:15.118Z,97317.47
2023-04-22T20:12:43.941Z,97324.69
2023-04-22T20:15:13.269Z,97333.78
2023-04-22T20:17:44.614Z,97327.31
2023-04-22T20:20:15.726Z,97330.81
2023-04-22T20:22:45.966Z,97318.03
2023-04-22T20:25:17.382Z,97325.28
2023-04-22T20:27:47.225Z,97324.34
2023-04-22T20:30:17.648Z,97321.84
2023-04-22T20:32:48.616Z,97315.06
2023-04-22T20:35:17.866Z,97321.94
2023-04-22T20:37:47.798Z,97316.84
2023-04-22T20:40:17.317Z,97324.50
2023-04-22T20:42:47.136Z,97324.91
2023-04-22T20:45:18.405Z,97331.00
2023-04-22T20:47:49.105Z,97329.34
2023-04-22T20:50:19.258Z,97325.63
2023-04-22T20:52:47.670Z,97328.59
2023-04-22T20:55:17.210Z,97320.25
2023-04-22T20:57:46.017Z,97307.63
2023-04-22T21:00:16.170Z,97308.75
2023-04-22T21:02:45.757Z,97298.84
2023-04-22T21:05:16.689Z,97305.50
2023-04-22T21:07:48.296Z,97307.09
2023-04-22T21:10:17.806Z,97309.88
2023-04-22T21:12:46.940Z,97309.44
2023-04-22T21:15:16.373Z,97311.56
2023-04-22T21:17:51.946Z,97323.41
2023-04-22T21:20:24.738Z,97315.63
2023-04-22T21:22:55.427Z,97321.75
2023-04-22T21:25:24.931Z,97316.84
2023-04-22T21:27:54.573Z,97320.00
2023-04-22T21:30:23.897Z,97326.94
2023-04-22T21:32:53.255Z,97322.69
2023-04-22T21:35:24.538Z,97320.00
2023-04-22T21:37:54.533Z,97320.00
2023-04-22T21:40:23.048Z,97318.31
2023-04-22T21:42:52.284Z,97312.31
2023-04-22T21:45:21.662Z,97314.63
2023-04-22T21:47:50.321Z,97323.59
2023-04-22T21:50:20.922Z,97338.44
2023-04-22T21:52:51.728Z,97325.72
2023-04-22T21:55:20.691Z,97341.75
2023-04-22T21:57:49.610Z,97346.13
2023-04-22T22:00:19.537Z,97348.97
2023-04-22T22:02:49.158Z,97345.75
2023-04-22T22:05:18.109Z,97351.56
2023-04-22T22:07:47.044Z,97350.09
2023-04-22T22:10:20.470Z,97363.00
2023-04-22T22:12:50.224Z,97363.00
2023-04-22T22:15:19.128Z,97359.19
2023-04-22T22:17:48.017Z,97374.28
2023-04-22T22:20:20.574Z,97371.13
2023-04-22T22:22:49.853Z,97365.88
2023-04-22T22:25:20.772Z,97375.78
2023-04-22T22:27:49.563Z,97381.66
2023-04-22T22:30:19.219Z,97384.28
2023-04-22T22:32:48.833Z,97390.53
2023-04-22T22:35:18.029Z,97387.66
2023-04-22T22:37:47.180Z,97399.22
2023-04-22T22:40:16.870Z,97397.00
2023-04-22T22:42:49.957Z,97368.28
2023-04-22T22:45:19.407Z,97372.16
2023-04-22T22:47:48.321Z,97357.69
2023-04-22T22:50:16.876Z,97369.34
2023-04-22T22:52:45.935Z,97374.41
2023-04-22T22:55:15.231Z,97359.94
2023-04-22T22:57:43.951Z,97371.59
2023-04-22T23:00:17.601Z,97353.97
2023-04-22T23:02:47.039Z,97339.00
2023-04-22T23:05:15.698Z,97337.47
2023-04-22T23:07:44.927Z,97345.25
2023-04-22T23:10:13.987Z,97355.72
2023-04-22T23:12:42.864Z,97343.44
2023-04-22T23:15:12.419Z,97333.94
2023-04-22T23:17:43.134Z,97322.34
2023-04-22T23:20:13.616Z,97315.06
2023-04-22T23:22:43.112Z,97315.75
2023-04-22T23:25:13.524Z,97316.84
2023-04-22T23:27:43.265Z,97314.34
2023-04-22T23:30:13.109Z,97317.66
2023-04-22T23:32:45.293Z,97309.34
2023-04-22T23:35:15.840Z,97305.66
2023-04-22T23:37:46.630Z,97313.41
2023-04-22T23:40:15.908Z,97321.34
2023-04-22T23:42:44.985Z,97325.03
2023-04-22T23:45:14.248Z,97318.53
2023-04-22T23:47:45.191Z,97316.31
2023-04-22T23:50:16.403Z,97323.44
2023-04-22T23:52:44.999Z,97325.28
2023-04-22T23:55:16.292Z,97332.28
2023-04-22T23:57:46.149Z,97336.53
